Time;durP1;ratioP1;P1;durP2;ratioP2;P2;SDS_P1;SDS_P2;PMS_P1;PMS_P2;Temp;Humidity;BMP_temperature;BMP_pressure;BME280_temperature;BME280_humidity;BME280_pressure;Samples;Min_cycle;Max_cycle;Signal;HPM_P1;HPM_P2
2023/10/24 00:02:43;;;;;;;12.13;10.93;;;24.30;94.50;;;;;;6296575;27;88971;-69
2023/10/24 00:05:47;;;;;;;11.35;10.15;;;24.30;94.40;;;;;;6290036;27;87919;-69
2023/10/24 00:08:49;;;;;;;11.07;9.90;;;24.30;94.50;;;;;;6297929;27;88768;-69
2023/10/24 00:11:51;;;;;;;12.35;10.80;;;24.30;94.50;;;;;;6294674;27;89049;-69
2023/10/24 00:14:55;;;;;;;11.60;10.40;;;24.30;94.60;;;;;;6295892;27;89364;-69
2023/10/24 00:17:57;;;;;;;11.90;10.63;;;24.30;94.50;;;;;;6294994;27;88275;-69
2023/10/24 00:21:01;;;;;;;11.05;9.95;;;24.30;94.60;;;;;;6292150;27;89017;-71
2023/10/24 00:24:03;;;;;;;12.40;11.00;;;24.30;94.70;;;;;;6291378;27;89032;-72
2023/10/24 00:27:06;;;;;;;13.43;10.70;;;24.20;94.70;;;;;;6289502;27;90090;-70
2023/10/24 00:30:08;;;;;;;12.10;10.68;;;24.30;94.80;;;;;;6294289;27;89160;-69
2023/10/24 00:33:10;;;;;;;11.98;10.75;;;24.20;94.90;;;;;;6296337;27;89072;-69
2023/10/24 00:36:13;;;;;;;11.93;10.63;;;24.20;94.80;;;;;;6289820;27;87926;-71
2023/10/24 00:39:15;;;;;;;12.27;10.38;;;24.20;94.80;;;;;;6287094;27;88003;-71
2023/10/24 00:42:17;;;;;;;15.07;10.38;;;24.20;94.70;;;;;;6291735;27;89145;-71
2023/10/24 00:45:19;;;;;;;14.25;10.48;;;24.20;94.80;;;;;;6294912;27;89015;-71
2023/10/24 00:48:22;;;;;;;13.25;10.60;;;24.20;94.90;;;;;;6286833;27;87183;-71
2023/10/24 00:51:25;;;;;;;12.70;10.55;;;24.20;95.00;;;;;;6288798;27;89132;-71
2023/10/24 00:54:29;;;;;;;14.60;11.10;;;24.20;95.00;;;;;;6290221;27;88245;-73
2023/10/24 00:57:31;;;;;;;13.02;10.45;;;24.20;95.00;;;;;;6288058;27;89029;-73
2023/10/24 01:00:36;;;;;;;12.90;10.45;;;24.20;95.10;;;;;;6293842;27;89499;-71
2023/10/24 01:03:39;;;;;;;13.70;10.13;;;24.20;95.20;;;;;;6301743;27;89057;-71
2023/10/24 01:06:42;;;;;;;13.65;10.20;;;24.10;95.20;;;;;;6299651;27;89102;-72
2023/10/24 01:09:44;;;;;;;14.18;10.38;;;24.10;95.20;;;;;;6294383;27;88176;-72
2023/10/24 01:12:47;;;;;;;11.32;9.95;;;24.10;95.20;;;;;;6288426;27;89022;-70
2023/10/24 01:15:48;;;;;;;11.90;10.20;;;24.10;95.30;;;;;;6297322;27;88967;-70
2023/10/24 01:18:50;;;;;;;12.82;9.93;;;24.10;95.40;;;;;;6296264;27;88423;-70
2023/10/24 01:21:54;;;;;;;18.35;10.75;;;24.10;95.40;;;;;;6301797;27;89089;-70
2023/10/24 01:24:57;;;;;;;14.02;9.77;;;24.10;95.40;;;;;;6290558;27;87922;-70
2023/10/24 01:27:59;;;;;;;10.95;9.23;;;24.10;95.40;;;;;;6304843;27;89940;-70
2023/10/24 01:31:01;;;;;;;13.00;9.70;;;24.10;95.30;;;;;;6308760;27;89187;-70
2023/10/24 01:34:04;;;;;;;10.38;9.32;;;24.10;95.30;;;;;;6296251;27;90866;-70
2023/10/24 01:37:07;;;;;;;11.70;9.20;;;24.10;95.30;;;;;;6309805;27;89027;-70
2023/10/24 01:40:10;;;;;;;10.52;9.23;;;24.10;95.20;;;;;;6286024;27;89069;-70
2023/10/24 01:43:12;;;;;;;10.20;9.20;;;24.10;95.20;;;;;;6302846;27;89190;-70
2023/10/24 01:46:14;;;;;;;11.38;9.10;;;24.10;95.20;;;;;;6303995;27;88270;-70
2023/10/24 01:49:16;;;;;;;10.45;9.35;;;24.10;95.20;;;;;;6306016;27;88673;-70
2023/10/24 01:52:19;;;;;;;10.95;9.32;;;24.10;95.20;;;;;;6297152;27;88970;-70
2023/10/24 01:55:21;;;;;;;10.82;9.10;;;24.10;95.10;;;;;;6304045;27;89050;-70
2023/10/24 01:58:23;;;;;;;11.30;9.23;;;24.10;95.20;;;;;;6290522;27;89198;-71
2023/10/24 02:01:25;;;;;;;11.57;9.85;;;24.10;95.10;;;;;;6288964;27;89051;-70
2023/10/24 02:04:27;;;;;;;12.55;9.52;;;24.00;95.10;;;;;;6287785;27;87992;-70
2023/10/24 02:07:31;;;;;;;10.68;9.40;;;24.00;95.10;;;;;;6290241;27;89005;-71
2023/10/24 02:10:33;;;;;;;10.65;9.18;;;24.00;95.10;;;;;;6295726;27;89468;-71
2023/10/24 02:13:35;;;;;;;10.77;9.18;;;24.10;95.10;;;;;;6299334;27;89078;-71
2023/10/24 02:16:37;;;;;;;10.32;9.23;;;24.00;95.00;;;;;;6307068;27;88996;-70
2023/10/24 02:19:38;;;;;;;12.15;9.43;;;24.10;95.00;;;;;;6300061;27;88288;-71
2023/10/24 02:22:42;;;;;;;11.98;9.38;;;24.00;95.00;;;;;;6285012;27;89029;-71
2023/10/24 02:25:44;;;;;;;11.50;9.77;;;24.00;95.00;;;;;;6292415;27;88948;-71
2023/10/24 02:28:46;;;;;;;10.55;9.38;;;24.00;95.00;;;;;;6308114;27;89991;-70
2023/10/24 02:31:48;;;;;;;11.38;9.30;;;24.00;95.00;;;;;;6289257;27;89339;-70
2023/10/24 02:34:50;;;;;;;10.15;9.15;;;24.00;94.90;;;;;;6301753;27;88946;-70
2023/10/24 02:37:53;;;;;;;10.50;9.48;;;24.00;95.00;;;;;;6290815;27;89131;-70
2023/10/24 02:40:55;;;;;;;11.27;9.68;;;24.00;95.00;;;;;;6288085;27;89081;-70
2023/10/24 02:43:57;;;;;;;11.07;9.75;;;24.00;95.00;;;;;;6293666;27;89201;-71
2023/10/24 02:46:59;;;;;;;10.63;9.38;;;24.00;94.90;;;;;;6296955;27;89064;-71
2023/10/24 02:50:01;;;;;;;10.18;9.00;;;23.90;94.90;;;;;;6310271;27;88299;-71
2023/10/24 02:53:06;;;;;;;11.05;9.00;;;23.90;94.90;;;;;;6296391;27;89083;-70
2023/10/24 02:56:08;;;;;;;9.93;8.90;;;23.90;94.90;;;;;;6297678;27;89102;-71
2023/10/24 02:59:11;;;;;;;9.85;8.85;;;23.90;94.90;;;;;;6298113;27;90049;-70
2023/10/24 03:02:13;;;;;;;10.48;8.77;;;23.90;94.90;;;;;;6289003;27;89090;-70
2023/10/24 03:05:15;;;;;;;9.48;8.57;;;23.90;94.90;;;;;;6292163;27;89149;-70
2023/10/24 03:08:18;;;;;;;10.50;9.40;;;23.90;94.90;;;;;;6294353;27;89039;-71
2023/10/24 03:11:24;;;;;;;10.73;9.43;;;23.90;94.90;;;;;;6298234;27;89131;-71
2023/10/24 03:14:26;;;;;;;10.07;9.13;;;23.90;94.80;;;;;;6294086;27;89487;-71
2023/10/24 03:17:28;;;;;;;9.90;8.90;;;23.90;94.90;;;;;;6296644;27;89186;-70
2023/10/24 03:20:30;;;;;;;9.63;8.63;;;23.90;94.90;;;;;;6286134;27;88569;-71
2023/10/24 03:23:33;;;;;;;9.95;8.95;;;23.90;94.90;;;;;;6285979;27;89362;-70
2023/10/24 03:26:36;;;;;;;10.30;9.20;;;23.90;94.80;;;;;;6293629;27;89222;-70
2023/10/24 03:29:40;;;;;;;9.57;8.60;;;23.90;94.90;;;;;;6303233;27;90396;-70
2023/10/24 03:32:42;;;;;;;9.35;8.43;;;23.90;94.90;;;;;;6306004;27;88970;-71
2023/10/24 03:35:44;;;;;;;9.27;8.38;;;23.90;94.80;;;;;;6294956;27;88993;-70
2023/10/24 03:38:47;;;;;;;9.68;8.68;;;23.90;95.20;;;;;;6287603;27;89087;-70
2023/10/24 03:41:49;;;;;;;9.40;8.25;;;23.90;94.80;;;;;;6305925;27;89192;-70
2023/10/24 03:44:51;;;;;;;9.95;8.95;;;23.90;94.80;;;;;;6293498;27;89540;-70
2023/10/24 03:47:53;;;;;;;9.50;8.50;;;23.90;94.80;;;;;;6299365;27;89283;-69
2023/10/24 03:50:55;;;;;;;9.65;8.68;;;23.90;94.70;;;;;;6283364;27;88303;-70
2023/10/24 03:53:58;;;;;;;10.07;9.13;;;24.00;94.80;;;;;;6294421;27;89043;-70
2023/10/24 03:57:00;;;;;;;9.68;8.65;;;24.00;94.70;;;;;;6288728;27;87898;-70
2023/10/24 04:00:08;;;;;;;9.52;8.52;;;24.00;94.70;;;;;;6293056;27;89921;-70
2023/10/24 04:03:10;;;;;;;9.48;8.48;;;24.00;94.60;;;;;;6292147;27;87104;-70
2023/10/24 04:06:12;;;;;;;9.65;8.65;;;24.10;94.60;;;;;;6295245;27;89088;-70
2023/10/24 04:09:16;;;;;;;9.45;8.55;;;24.10;94.60;;;;;;6301336;27;88779;-70
2023/10/24 04:12:18;;;;;;;10.30;8.80;;;24.10;94.60;;;;;;6285299;27;88958;-70
2023/10/24 04:15:19;;;;;;;9.70;8.70;;;24.10;94.60;;;;;;6285833;27;89138;-69
2023/10/24 04:18:21;;;;;;;11.05;9.20;;;24.10;94.60;;;;;;6294908;27;89006;-70
2023/10/24 04:21:23;;;;;;;9.15;8.25;;;24.10;94.60;;;;;;6296584;27;88462;-71
2023/10/24 04:24:27;;;;;;;9.20;8.30;;;24.10;94.60;;;;;;6290823;27;89001;-70
2023/10/24 04:27:29;;;;;;;9.65;8.65;;;24.20;94.60;;;;;;6297167;27;88984;-71
2023/10/24 04:30:31;;;;;;;8.80;7.90;;;24.20;94.50;;;;;;6297427;27;89624;-70
2023/10/24 04:33:34;;;;;;;8.57;7.75;;;24.20;94.50;;;;;;6292328;27;89015;-71
2023/10/24 04:36:36;;;;;;;9.32;8.43;;;24.20;94.50;;;;;;6292500;27;89047;-71
2023/10/24 04:39:42;;;;;;;8.75;7.93;;;24.20;94.50;;;;;;6292716;27;89001;-70
2023/10/24 04:42:45;;;;;;;8.77;7.88;;;24.20;94.50;;;;;;6294850;27;89365;-70
2023/10/24 04:45:47;;;;;;;9.00;8.10;;;24.20;94.40;;;;;;6304144;27;89177;-70
2023/10/24 04:48:52;;;;;;;8.40;7.50;;;24.20;94.30;;;;;;6285102;27;89023;-69
2023/10/24 04:51:54;;;;;;;9.23;8.32;;;24.20;94.30;;;;;;6292793;27;88458;-70
2023/10/24 04:54:57;;;;;;;9.93;8.68;;;24.20;94.40;;;;;;6282641;27;88959;-70
2023/10/24 04:58:00;;;;;;;9.80;8.80;;;24.20;95.50;;;;;;6295705;27;89030;-69
2023/10/24 05:01:02;;;;;;;9.38;8.43;;;24.30;96.20;;;;;;6295081;27;90010;-69
2023/10/24 05:04:04;;;;;;;9.48;8.57;;;24.40;95.10;;;;;;6298151;27;89468;-69
2023/10/24 05:07:06;;;;;;;10.50;9.50;;;24.40;94.80;;;;;;6291856;27;89093;-69
2023/10/24 05:10:11;;;;;;;9.80;8.82;;;24.50;94.60;;;;;;6296690;27;89019;-70
2023/10/24 05:13:13;;;;;;;10.20;9.20;;;24.50;94.50;;;;;;6291998;27;90736;-70
2023/10/24 05:16:15;;;;;;;11.40;10.27;;;24.50;94.50;;;;;;6293036;27;87927;-69
2023/10/24 05:19:17;;;;;;;10.27;9.27;;;24.50;94.50;;;;;;6284566;27;90220;-70
2023/10/24 05:22:19;;;;;;;10.35;8.93;;;24.50;94.50;;;;;;6296530;27;88904;-69
2023/10/24 05:25:22;;;;;;;13.07;7.53;;;24.50;94.40;;;;;;6303401;27;88025;-70
2023/10/24 05:28:24;;;;;;;6.88;6.18;;;24.50;93.90;;;;;;6302928;27;89358;-69
2023/10/24 05:31:26;;;;;;;8.00;6.72;;;24.50;92.30;;;;;;6310788;27;89979;-70
2023/10/24 05:34:28;;;;;;;7.93;6.95;;;24.50;92.40;;;;;;6296468;27;88968;-69
2023/10/24 05:37:30;;;;;;;8.80;6.93;;;24.50;92.70;;;;;;6285358;27;89020;-69
2023/10/24 05:40:33;;;;;;;7.63;6.35;;;24.50;92.80;;;;;;6294259;27;89011;-69
2023/10/24 05:43:37;;;;;;;8.68;6.53;;;24.50;92.90;;;;;;6285331;27;89068;-70
2023/10/24 05:46:39;;;;;;;7.15;6.45;;;24.50;93.00;;;;;;6284881;27;88042;-70
2023/10/24 05:49:42;;;;;;;7.38;6.57;;;24.50;93.00;;;;;;6283864;27;89033;-70
2023/10/24 05:52:43;;;;;;;6.47;5.88;;;24.50;93.00;;;;;;6289845;27;87512;-70
2023/10/24 05:55:47;;;;;;;6.57;5.97;;;24.50;93.10;;;;;;6287684;27;89301;-70
2023/10/24 05:58:49;;;;;;;6.45;5.85;;;24.50;93.10;;;;;;6294110;27;87968;-69
2023/10/24 06:01:51;;;;;;;7.05;6.35;;;24.50;93.10;;;;;;6296964;27;88849;-69
2023/10/24 06:04:55;;;;;;;6.40;5.68;;;24.50;93.20;;;;;;6294506;27;89011;-70
2023/10/24 06:07:57;;;;;;;6.28;5.68;;;24.50;93.20;;;;;;6302010;27;89004;-70
2023/10/24 06:11:02;;;;;;;8.50;6.53;;;24.40;93.20;;;;;;6293444;27;88243;-69
2023/10/24 06:14:04;;;;;;;7.07;6.18;;;24.50;93.30;;;;;;6298845;27;89017;-69
2023/10/24 06:17:06;;;;;;;6.80;6.10;;;24.50;93.30;;;;;;6291354;27;89815;-69
2023/10/24 06:20:09;;;;;;;7.40;6.20;;;24.50;93.30;;;;;;6300571;27;88938;-70
2023/10/24 06:23:11;;;;;;;6.75;6.05;;;24.50;93.30;;;;;;6301852;27;88361;-69
2023/10/24 06:26:14;;;;;;;6.30;5.70;;;24.50;93.40;;;;;;6293464;27;89041;-70
2023/10/24 06:29:16;;;;;;;6.70;6.00;;;24.50;93.40;;;;;;6294608;27;89370;-69
2023/10/24 06:32:18;;;;;;;6.55;5.68;;;24.50;93.40;;;;;;6298447;27;90113;-69
2023/10/24 06:35:20;;;;;;;7.28;5.60;;;24.50;93.40;;;;;;6294557;27;89322;-69
2023/10/24 06:38:22;;;;;;;6.60;5.78;;;24.50;93.40;;;;;;6295813;27;89005;-69
2023/10/24 06:41:29;;;;;;;6.07;5.47;;;24.50;93.30;;;;;;6295624;27;90682;-69
2023/10/24 06:44:32;;;;;;;6.65;5.28;;;24.50;93.30;;;;;;6297698;27;89151;-70
2023/10/24 06:47:34;;;;;;;6.05;5.47;;;24.50;93.30;;;;;;6292100;27;88963;-69
2023/10/24 06:50:36;;;;;;;5.78;5.18;;;24.50;93.30;;;;;;6291977;27;89383;-70
2023/10/24 06:53:38;;;;;;;5.90;5.40;;;24.50;93.20;;;;;;6288607;27;88398;-69
2023/10/24 06:56:41;;;;;;;6.03;5.40;;;24.60;93.20;;;;;;6297992;27;89027;-69
2023/10/24 06:59:43;;;;;;;6.28;5.60;;;24.60;93.20;;;;;;6294900;27;89032;-69
2023/10/24 07:02:46;;;;;;;6.32;5.55;;;24.60;93.20;;;;;;6283615;27;90359;-70
2023/10/24 07:05:50;;;;;;;5.70;5.20;;;24.50;93.10;;;;;;6290792;27;89081;-70
2023/10/24 07:08:52;;;;;;;5.55;5.05;;;24.50;93.10;;;;;;6291034;27;89173;-69
2023/10/24 07:11:55;;;;;;;6.78;5.45;;;24.50;93.10;;;;;;6287524;27;89108;-69
2023/10/24 07:14:58;;;;;;;6.60;5.55;;;24.50;93.10;;;;;;6286494;27;89043;-69
2023/10/24 07:18:00;;;;;;;5.22;4.72;;;24.50;93.10;;;;;;6301885;27;89519;-70
2023/10/24 07:21:02;;;;;;;5.93;5.32;;;24.60;93.10;;;;;;6299176;27;89505;-70
2023/10/24 07:24:05;;;;;;;5.53;5.03;;;24.60;93.10;;;;;;6307496;27;88491;-69
2023/10/24 07:27:10;;;;;;;6.15;5.30;;;24.60;93.10;;;;;;6287425;27;89153;-69
2023/10/24 07:30:12;;;;;;;5.40;4.90;;;24.60;93.10;;;;;;6297987;27;89179;-69
2023/10/24 07:33:14;;;;;;;5.82;5.22;;;24.50;93.10;;;;;;6298932;27;90316;-70
2023/10/24 07:36:16;;;;;;;5.88;5.20;;;24.50;93.10;;;;;;6300676;27;88113;-69
2023/10/24 07:39:20;;;;;;;5.28;4.78;;;24.50;93.00;;;;;;6295537;27;89079;-70
2023/10/24 07:42:23;;;;;;;5.53;4.78;;;24.60;93.00;;;;;;6296168;27;89071;-70
2023/10/24 07:45:25;;;;;;;5.32;4.82;;;24.60;93.00;;;;;;6295754;27;88995;-70
2023/10/24 07:48:27;;;;;;;5.45;4.95;;;24.60;93.00;;;;;;6283774;27;89052;-69
2023/10/24 07:51:31;;;;;;;5.43;4.93;;;24.60;93.00;;;;;;6290361;27;89013;-70
2023/10/24 07:54:33;;;;;;;5.30;4.80;;;24.60;93.00;;;;;;6292358;27;88592;-69
2023/10/24 07:57:36;;;;;;;5.38;4.88;;;24.60;93.00;;;;;;6294128;27;89073;-70
2023/10/24 08:00:38;;;;;;;4.95;4.50;;;24.60;93.00;;;;;;6296415;27;89061;-69
2023/10/24 08:03:40;;;;;;;5.43;4.93;;;24.60;93.00;;;;;;6297018;27;89908;-70
2023/10/24 08:06:42;;;;;;;6.15;5.43;;;24.50;93.00;;;;;;6301925;27;88962;-70
2023/10/24 08:09:44;;;;;;;5.10;4.60;;;24.60;93.00;;;;;;6307889;27;89165;-70
2023/10/24 08:12:48;;;;;;;5.32;4.82;;;24.60;93.10;;;;;;6297888;27;89043;-70
2023/10/24 08:15:51;;;;;;;5.18;4.78;;;24.60;93.10;;;;;;6303467;27;89143;-69
2023/10/24 08:18:53;;;;;;;5.50;5.00;;;24.60;93.10;;;;;;6291392;27;88887;-69
2023/10/24 08:21:55;;;;;;;5.20;4.70;;;24.60;93.20;;;;;;6294605;27;89184;-70
2023/10/24 08:24:58;;;;;;;5.07;4.57;;;24.60;93.20;;;;;;6292986;27;88329;-70
2023/10/24 08:28:02;;;;;;;4.75;4.35;;;24.60;93.20;;;;;;6284001;27;89028;-69
2023/10/24 08:31:04;;;;;;;7.28;5.70;;;24.60;93.20;;;;;;6287026;27;89004;-69
2023/10/24 08:34:06;;;;;;;6.20;5.60;;;24.60;93.20;;;;;;6283652;27;89829;-69
2023/10/24 08:37:09;;;;;;;5.43;4.78;;;24.60;93.00;;;;;;6280939;27;88143;-69
2023/10/24 08:40:12;;;;;;;6.07;4.90;;;24.60;93.00;;;;;;6289176;27;89229;-69
2023/10/24 08:43:18;;;;;;;5.50;5.00;;;24.60;93.10;;;;;;6291404;27;87886;-69
2023/10/24 08:46:21;;;;;;;6.75;5.38;;;24.60;93.10;;;;;;6280320;27;87606;-69
2023/10/24 08:49:23;;;;;;;5.10;4.60;;;24.60;93.10;;;;;;6290397;27;88988;-70
2023/10/24 08:52:25;;;;;;;5.13;4.63;;;24.60;93.20;;;;;;6295447;27;88500;-69
2023/10/24 08:55:28;;;;;;;5.60;5.00;;;24.60;93.20;;;;;;6287692;27;87458;-70
2023/10/24 08:58:34;;;;;;;5.88;5.30;;;24.70;93.30;;;;;;6287363;27;89099;-70
2023/10/24 09:01:38;;;;;;;5.70;5.00;;;24.60;93.20;;;;;;6280826;27;89359;-67
2023/10/24 09:04:40;;;;;;;5.18;4.68;;;24.60;93.30;;;;;;6286062;27;89931;-69
2023/10/24 09:07:43;;;;;;;6.15;4.95;;;24.60;93.20;;;;;;6292670;27;89041;-70
2023/10/24 09:10:47;;;;;;;5.75;5.15;;;24.60;93.20;;;;;;6292592;27;89214;-69
2023/10/24 09:13:50;;;;;;;5.80;5.15;;;24.60;93.20;;;;;;6296219;27;88225;-69
2023/10/24 09:16:58;;;;;;;6.50;5.72;;;24.60;93.20;;;;;;6291971;27;89292;-69
2023/10/24 09:20:00;;;;;;;5.70;5.20;;;24.60;93.20;;;;;;6297917;27;89023;-70
2023/10/24 09:23:06;;;;;;;6.00;5.40;;;24.60;93.20;;;;;;6288605;27;89001;-69
2023/10/24 09:26:11;;;;;;;6.05;5.50;;;24.60;93.20;;;;;;6287820;27;88343;-69
2023/10/24 09:29:14;;;;;;;6.10;5.50;;;24.60;93.10;;;;;;6294135;27;89095;-69
2023/10/24 09:32:16;;;;;;;6.40;5.80;;;24.70;93.20;;;;;;6285801;27;89423;-70
2023/10/24 09:35:20;;;;;;;6.38;5.78;;;24.70;93.20;;;;;;6281470;27;90026;-70
2023/10/24 09:38:24;;;;;;;6.45;5.85;;;24.70;93.10;;;;;;6293842;27;89149;-69
2023/10/24 09:41:27;;;;;;;6.57;5.95;;;24.60;93.10;;;;;;6292637;27;89113;-70
2023/10/24 09:44:30;;;;;;;7.10;6.40;;;24.70;93.10;;;;;;6310676;27;88977;-69
2023/10/24 09:47:33;;;;;;;6.93;6.00;;;24.60;93.00;;;;;;6295408;27;89649;-70
2023/10/24 09:50:36;;;;;;;6.68;6.00;;;24.70;93.20;;;;;;6294787;27;89167;-69
2023/10/24 09:53:39;;;;;;;7.55;6.85;;;24.70;93.20;;;;;;6292373;27;89170;-71
2023/10/24 09:56:41;;;;;;;8.95;6.78;;;24.60;93.40;;;;;;6292434;27;88461;-71
2023/10/24 09:59:46;;;;;;;7.35;6.47;;;24.70;93.40;;;;;;6294587;27;87883;-71
2023/10/24 10:02:49;;;;;;;7.70;6.90;;;24.70;93.40;;;;;;6288455;27;88979;-71
2023/10/24 10:05:54;;;;;;;7.93;7.13;;;24.70;93.40;;;;;;6288271;27;89893;-71
2023/10/24 10:08:58;;;;;;;7.93;7.13;;;24.60;93.40;;;;;;6288248;27;88016;-71
2023/10/24 10:12:02;;;;;;;8.07;7.28;;;24.70;93.50;;;;;;6283450;27;88071;-71
2023/10/24 10:15:28;;;;;;;8.23;7.25;;;24.70;93.50;;;;;;6289662;27;89085;-71
2023/10/24 10:18:42;;;;;;;8.10;7.30;;;24.70;93.50;;;;;;6301200;27;89098;-71
2023/10/24 10:21:57;;;;;;;8.10;7.38;;;24.70;93.50;;;;;;6296439;27;88939;-72
2023/10/24 10:25:34;;;;;;;8.52;7.63;;;24.70;93.50;;;;;;6304468;27;87944;-71
2023/10/24 10:28:58;;;;;;;8.65;7.85;;;24.70;93.50;;;;;;6308499;27;88329;-71
2023/10/24 10:32:14;;;;;;;9.30;7.80;;;24.70;93.50;;;;;;6295308;27;89040;-71
2023/10/24 10:35:18;;;;;;;8.38;7.57;;;24.70;93.50;;;;;;6303023;27;89043;-71
2023/10/24 10:38:25;;;;;;;10.30;8.05;;;24.70;93.50;;;;;;6298543;27;89969;-70
2023/10/24 10:41:39;;;;;;;8.75;7.95;;;24.70;93.60;;;;;;6290650;27;89013;-71
2023/10/24 10:44:43;;;;;;;8.73;7.93;;;24.70;93.60;;;;;;6303824;27;90106;-71
2023/10/24 10:47:47;;;;;;;9.10;8.20;;;24.70;93.60;;;;;;6285103;27;87045;-71
2023/10/24 10:50:51;;;;;;;9.80;8.80;;;24.70;93.60;;;;;;6294680;27;89497;-72
2023/10/24 10:53:59;;;;;;;9.02;8.20;;;24.70;93.60;;;;;;6291895;27;88993;-71
2023/10/24 10:57:05;;;;;;;11.20;8.45;;;24.70;93.60;;;;;;6295026;27;88926;-71
2023/10/24 11:00:11;;;;;;;10.60;8.65;;;24.70;93.60;;;;;;6307456;27;88377;-72
2023/10/24 11:03:38;;;;;;;9.77;8.77;;;24.70;93.60;;;;;;6283755;27;89109;-72
2023/10/24 11:06:42;;;;;;;9.93;8.93;;;24.70;93.60;;;;;;6284318;27;88891;-72
2023/10/24 11:09:44;;;;;;;9.68;8.65;;;24.70;93.60;;;;;;6282165;27;90857;-72
2023/10/24 11:12:48;;;;;;;9.60;8.57;;;24.70;93.60;;;;;;6295060;27;89030;-72
2023/10/24 11:15:54;;;;;;;9.40;8.50;;;24.70;93.60;;;;;;6293905;27;89122;-71
2023/10/24 11:18:57;;;;;;;9.63;8.68;;;24.70;93.60;;;;;;6294691;27;87091;-72
2023/10/24 11:21:59;;;;;;;9.30;8.48;;;24.70;93.60;;;;;;6283221;27;89084;-72
2023/10/24 11:25:01;;;;;;;9.50;8.60;;;24.70;93.60;;;;;;6287055;27;89100;-72
2023/10/24 11:28:08;;;;;;;8.68;7.88;;;24.60;93.50;;;;;;6292922;27;89061;-72
2023/10/24 11:31:21;;;;;;;9.38;8.48;;;24.70;93.50;;;;;;6289958;27;88427;-72
2023/10/24 11:34:24;;;;;;;9.50;8.60;;;24.70;93.60;;;;;;6289136;27;89121;-72
2023/10/24 11:37:28;;;;;;;9.40;8.40;;;24.70;93.60;;;;;;6292016;27;89143;-72
2023/10/24 11:40:30;;;;;;;8.55;7.75;;;24.70;93.60;;;;;;6285721;27;88809;-72
2023/10/24 11:43:32;;;;;;;9.45;8.55;;;24.60;93.50;;;;;;6288216;27;89035;-72
2023/10/24 11:46:39;;;;;;;8.85;8.05;;;24.70;93.60;;;;;;6293441;27;89104;-73
2023/10/24 11:49:42;;;;;;;8.68;7.88;;;24.70;93.60;;;;;;6297002;27;89122;-72
2023/10/24 11:52:44;;;;;;;9.02;8.13;;;24.70;93.60;;;;;;6292834;27;89228;-72
2023/10/24 11:55:47;;;;;;;9.40;8.55;;;24.70;93.60;;;;;;6301818;27;89180;-72
2023/10/24 11:58:49;;;;;;;9.45;8.55;;;24.70;93.60;;;;;;6292784;27;89095;-71
2023/10/24 12:01:51;;;;;;;9.48;8.50;;;24.70;93.60;;;;;;6291019;27;88290;-72
2023/10/24 12:04:54;;;;;;;8.85;8.05;;;24.70;93.60;;;;;;6285199;27;89370;-73
2023/10/24 12:07:57;;;;;;;9.15;8.32;;;24.70;93.60;;;;;;6284433;27;91457;-73
2023/10/24 12:10:59;;;;;;;9.90;9.00;;;24.60;93.50;;;;;;6285106;27;89953;-72
2023/10/24 12:14:02;;;;;;;10.10;9.13;;;24.70;93.60;;;;;;6291151;27;89149;-72
2023/10/24 12:17:04;;;;;;;10.05;9.05;;;24.60;93.50;;;;;;6296155;27;89137;-71
2023/10/24 12:20:08;;;;;;;10.35;9.38;;;24.60;93.50;;;;;;6295841;27;89116;-72
2023/10/24 12:23:10;;;;;;;9.18;8.30;;;24.60;93.60;;;;;;6291766;27;89129;-73
2023/10/24 12:26:12;;;;;;;10.05;8.93;;;24.70;92.40;;;;;;6286777;27;89050;-73
2023/10/24 12:29:14;;;;;;;9.20;8.30;;;24.60;91.80;;;;;;6303899;27;89047;-72
2023/10/24 12:32:17;;;;;;;9.43;8.43;;;24.60;91.70;;;;;;6292029;27;87005;-73
2023/10/24 12:35:21;;;;;;;8.20;7.40;;;24.60;91.60;;;;;;6281835;27;87952;-73
2023/10/24 12:38:23;;;;;;;8.85;8.05;;;24.60;91.40;;;;;;6283608;27;89090;-73
2023/10/24 12:41:25;;;;;;;9.30;7.63;;;24.60;91.40;;;;;;6282401;27;89946;-73
2023/10/24 12:44:30;;;;;;;9.73;8.77;;;24.60;91.50;;;;;;6287691;27;88989;-72
2023/10/24 12:47:32;;;;;;;9.27;8.35;;;24.50;91.70;;;;;;6295206;27;89060;-72
2023/10/24 12:50:36;;;;;;;9.65;8.75;;;24.60;91.90;;;;;;6283901;27;89156;-73
2023/10/24 12:53:38;;;;;;;9.63;8.63;;;24.60;92.00;;;;;;6290576;27;89049;-73
2023/10/24 12:56:40;;;;;;;9.63;8.73;;;24.50;92.10;;;;;;6292370;27;89019;-73
2023/10/24 12:59:42;;;;;;;9.75;8.55;;;24.60;92.30;;;;;;6292239;27;89132;-72
2023/10/24 13:02:44;;;;;;;9.98;8.98;;;24.60;92.30;;;;;;6284348;27;88366;-73
2023/10/24 13:05:47;;;;;;;9.55;8.52;;;24.60;92.50;;;;;;6291503;27;89345;-74
2023/10/24 13:08:49;;;;;;;10.40;9.27;;;24.50;92.50;;;;;;6291269;27;88921;-75
2023/10/24 13:11:52;;;;;;;11.50;9.77;;;24.60;92.80;;;;;;6283923;27;89933;-70
2023/10/24 13:14:54;;;;;;;12.23;10.02;;;24.60;93.20;;;;;;6287974;27;89006;-73
2023/10/24 13:17:56;;;;;;;11.75;9.82;;;24.60;93.40;;;;;;6306665;27;89316;-72
2023/10/24 13:20:59;;;;;;;11.88;9.52;;;24.60;93.50;;;;;;6299780;27;89156;-74
2023/10/24 13:24:02;;;;;;;12.73;9.10;;;24.60;93.60;;;;;;6291178;27;87960;-73
2023/10/24 13:27:05;;;;;;;11.82;10.63;;;24.60;93.80;;;;;;6297685;27;90307;-72
2023/10/24 13:30:09;;;;;;;10.60;9.50;;;24.60;93.80;;;;;;6297709;27;89344;-72
2023/10/24 13:33:10;;;;;;;12.18;9.63;;;24.70;93.80;;;;;;6295644;27;88362;-74
2023/10/24 13:36:14;;;;;;;11.27;9.73;;;24.70;93.90;;;;;;6286462;27;89080;-72
2023/10/24 13:39:16;;;;;;;11.00;9.70;;;24.70;93.80;;;;;;6296029;27;89238;-73
2023/10/24 13:42:18;;;;;;;15.23;10.20;;;24.70;93.90;;;;;;6293057;27;90053;-73
2023/10/24 13:45:21;;;;;;;11.00;9.68;;;24.70;93.90;;;;;;6290464;27;89049;-73
2023/10/24 13:48:23;;;;;;;10.85;9.45;;;24.70;94.00;;;;;;6294698;27;87925;-73
2023/10/24 13:51:29;;;;;;;13.02;9.65;;;24.60;93.90;;;;;;6315960;27;89110;-73
2023/10/24 13:54:31;;;;;;;10.85;9.75;;;24.70;94.00;;;;;;6314417;27;89449;-72
2023/10/24 13:57:33;;;;;;;10.80;9.38;;;24.70;93.90;;;;;;6318678;27;89410;-72
2023/10/24 14:00:35;;;;;;;12.38;10.27;;;24.70;93.90;;;;;;6311167;27;89160;-73
2023/10/24 14:03:40;;;;;;;11.43;9.68;;;24.70;93.90;;;;;;6317198;27;87343;-73
2023/10/24 14:06:43;;;;;;;10.55;9.40;;;24.70;94.30;;;;;;6327323;27;89126;-73
2023/10/24 14:09:45;;;;;;;11.38;10.18;;;24.70;93.80;;;;;;6309600;27;89347;-73
2023/10/24 14:12:47;;;;;;;10.85;9.27;;;24.70;93.80;;;;;;6321998;27;90076;-73
2023/10/24 14:15:49;;;;;;;10.48;9.38;;;24.70;93.70;;;;;;6323021;27;89136;-73
2023/10/24 14:18:54;;;;;;;10.05;9.10;;;24.70;93.80;;;;;;6325084;27;89089;-73
2023/10/24 14:21:58;;;;;;;10.05;9.05;;;24.70;93.70;;;;;;6328289;27;89353;-74
2023/10/24 14:25:02;;;;;;;9.75;8.80;;;24.70;93.70;;;;;;6312229;27;89003;-72
2023/10/24 14:28:04;;;;;;;11.05;9.30;;;24.70;93.70;;;;;;6323589;27;88533;-73
2023/10/24 14:31:06;;;;;;;10.68;9.60;;;24.70;93.70;;;;;;6326104;27;89127;-73
2023/10/24 14:34:08;;;;;;;10.57;9.57;;;24.70;93.70;;;;;;6329252;27;88549;-73
2023/10/24 14:37:14;;;;;;;10.57;9.20;;;24.70;93.70;;;;;;6320395;27;87947;-73
2023/10/24 14:40:16;;;;;;;12.40;9.23;;;24.70;93.60;;;;;;6320678;27;89104;-73
2023/10/24 14:43:18;;;;;;;10.55;9.45;;;24.70;93.60;;;;;;6326009;27;90035;-74
2023/10/24 14:46:20;;;;;;;10.13;9.00;;;24.70;93.60;;;;;;6319984;27;89164;-73
2023/10/24 14:49:22;;;;;;;9.93;9.02;;;24.60;93.60;;;;;;6333965;27;89101;-74
2023/10/24 14:52:27;;;;;;;10.02;9.02;;;24.60;93.60;;;;;;6325177;27;89338;-74
2023/10/24 14:55:29;;;;;;;9.70;8.80;;;24.70;93.60;;;;;;6319063;27;89092;-73
2023/10/24 14:58:31;;;;;;;10.35;9.10;;;24.60;93.60;;;;;;6324357;27;89000;-73
2023/10/24 15:01:33;;;;;;;10.00;9.05;;;24.70;93.70;;;;;;6318144;27;89151;-73
2023/10/24 15:04:36;;;;;;;9.90;8.90;;;24.70;93.70;;;;;;6320992;27;88389;-73
2023/10/24 15:07:39;;;;;;;9.52;8.52;;;24.70;93.60;;;;;;6332026;27;89047;-74
2023/10/24 15:10:41;;;;;;;10.07;9.02;;;24.70;93.60;;;;;;6312784;27;89073;-73
2023/10/24 15:13:43;;;;;;;9.65;8.68;;;24.70;93.60;;;;;;6322253;27;89916;-73
2023/10/24 15:16:45;;;;;;;9.82;8.73;;;24.70;93.60;;;;;;6310494;27;89011;-72
2023/10/24 15:19:48;;;;;;;9.90;8.90;;;24.70;93.60;;;;;;6328599;27;89149;-73
2023/10/24 15:22:51;;;;;;;10.25;9.25;;;24.70;93.70;;;;;;6319987;27;89406;-73
2023/10/24 15:25:56;;;;;;;9.40;8.50;;;24.70;93.70;;;;;;6311886;27;89084;-72
2023/10/24 15:28:58;;;;;;;9.60;8.70;;;24.70;93.70;;;;;;6326127;27;89173;-72
2023/10/24 15:32:00;;;;;;;11.13;8.90;;;24.70;93.70;;;;;;6319950;27;89643;-72
2023/10/24 15:35:06;;;;;;;9.98;8.98;;;24.70;93.70;;;;;;6318444;27;88307;-72
2023/10/24 15:38:09;;;;;;;9.55;8.57;;;24.70;93.70;;;;;;6321914;27;89037;-71
2023/10/24 15:41:11;;;;;;;10.60;9.10;;;24.70;93.70;;;;;;6308788;27;89050;-72
2023/10/24 15:44:13;;;;;;;9.10;8.30;;;24.70;93.70;;;;;;6325527;27;90056;-72
2023/10/24 15:47:15;;;;;;;9.20;8.30;;;24.70;93.70;;;;;;6316018;27;88975;-72
2023/10/24 15:50:17;;;;;;;9.20;8.30;;;24.70;93.70;;;;;;6318159;27;88121;-72